Time;durP1;ratioP1;P1;durP2;ratioP2;P2;SDS_P1;SDS_P2;PMS_P1;PMS_P2;Temp;Humidity;BMP_temperature;BMP_pressure;BME280_temperature;BME280_humidity;BME280_pressure;Samples;Min_cycle;Max_cycle;Signal;HPM_P1;HPM_P2
2022/01/21 00:00:12;;;;;;;10.60;2.60;;;;;;;;;;5026696;28;20473;-86
2022/01/21 00:02:38;;;;;;;16.77;3.47;;;;;;;;;;5022739;28;20476;-86
2022/01/21 00:05:05;;;;;;;12.83;3.10;;;;;;;;;;5023522;28;20517;-86
2022/01/21 00:07:31;;;;;;;12.67;3.40;;;;;;;;;;5023001;28;20449;-85
2022/01/21 00:09:59;;;;;;;10.33;2.87;;;;;;;;;;5025553;28;20472;-85
2022/01/21 00:12:28;;;;;;;13.47;3.00;;;;;;;;;;5027191;28;20457;-85
2022/01/21 00:14:54;;;;;;;13.13;2.87;;;;;;;;;;5026177;28;20488;-86
2022/01/21 00:17:22;;;;;;;16.37;3.90;;;;;;;;;;5027148;28;20448;-85
2022/01/21 00:19:52;;;;;;;11.97;3.40;;;;;;;;;;5025557;28;20485;-86
2022/01/21 00:30:36;;;;;;;8.63;3.37;;;;;;;;;;5078337;28;20489;-86
2022/01/21 00:33:02;;;;;;;12.40;2.83;;;;;;;;;;5076468;28;20475;-85
2022/01/21 00:35:29;;;;;;;17.10;4.00;;;;;;;;;;5078401;28;20831;-86
2022/01/21 00:37:55;;;;;;;11.67;3.90;;;;;;;;;;5076668;28;20505;-85
2022/01/21 00:40:24;;;;;;;12.70;3.13;;;;;;;;;;5077074;28;20904;-86
2022/01/21 00:43:12;;;;;;;10.03;3.10;;;;;;;;;;5077101;28;21038;-85
2022/01/21 00:45:38;;;;;;;15.90;2.60;;;;;;;;;;5079235;28;20461;-86
2022/01/21 00:48:05;;;;;;;9.00;2.13;;;;;;;;;;5077547;28;20482;-85
2022/01/21 00:50:31;;;;;;;7.33;3.70;;;;;;;;;;5077299;28;20591;-86
2022/01/21 00:52:58;;;;;;;4.83;2.47;;;;;;;;;;5077704;28;20501;-86
2022/01/21 00:55:25;;;;;;;18.53;3.50;;;;;;;;;;5074769;28;20466;-86
2022/01/21 00:57:51;;;;;;;15.10;2.07;;;;;;;;;;5077373;28;20470;-86
2022/01/21 01:00:18;;;;;;;5.67;2.27;;;;;;;;;;5076640;28;20504;-85
2022/01/21 01:02:44;;;;;;;10.83;2.60;;;;;;;;;;5077823;28;20467;-86
2022/01/21 01:05:12;;;;;;;12.53;3.40;;;;;;;;;;5079795;28;20477;-85
2022/01/21 01:07:39;;;;;;;9.40;4.67;;;;;;;;;;5078553;28;20458;-86
2022/01/21 01:10:06;;;;;;;8.57;2.67;;;;;;;;;;5086004;22;20976;-86
2022/01/21 01:12:48;;;;;;;9.50;2.50;;;;;;;;;;5050699;28;20467;-85
2022/01/21 01:20:42;;;;;;;11.37;2.40;;;;;;;;;;4994955;28;20460;-83
2022/01/21 01:23:21;;;;;;;10.87;3.40;;;;;;;;;;5016110;28;20476;-87
2022/01/21 01:28:33;;;;;;;9.37;2.80;;;;;;;;;;5015470;28;20504;-85
2022/01/21 01:30:59;;;;;;;16.27;3.17;;;;;;;;;;5016004;28;20970;-85
2022/01/21 01:33:34;;;;;;;8.97;3.40;;;;;;;;;;5016371;28;20528;-86
2022/01/21 01:36:00;;;;;;;12.00;2.77;;;;;;;;;;5005396;28;20556;-87
2022/01/21 01:38:47;;;;;;;12.33;3.13;;;;;;;;;;5001457;28;20478;-85
2022/01/21 01:41:16;;;;;;;9.87;2.43;;;;;;;;;;5003379;28;20565;-84
2022/01/21 01:49:28;;;;;;;11.20;2.20;;;;;;;;;;5002607;28;21022;-85
2022/01/21 01:51:54;;;;;;;11.43;2.30;;;;;;;;;;5002886;28;20455;-85
2022/01/21 01:54:20;;;;;;;25.27;3.37;;;;;;;;;;5003125;28;21068;-85
2022/01/21 01:56:48;;;;;;;8.90;2.47;;;;;;;;;;5003810;28;20505;-87
2022/01/21 01:59:16;;;;;;;7.27;3.27;;;;;;;;;;5002614;28;20559;-84
2022/01/21 02:01:42;;;;;;;7.60;2.20;;;;;;;;;;5003190;28;20539;-83
2022/01/21 02:04:09;;;;;;;14.73;3.00;;;;;;;;;;5000032;28;20477;-85
2022/01/21 02:06:35;;;;;;;6.40;2.60;;;;;;;;;;5004265;28;20480;-84
2022/01/21 02:09:01;;;;;;;11.57;2.13;;;;;;;;;;5003099;28;20477;-84
2022/01/21 02:11:28;;;;;;;10.50;2.73;;;;;;;;;;5003227;28;20499;-86
2022/01/21 02:13:58;;;;;;;9.30;2.70;;;;;;;;;;5003424;28;21075;-84
2022/01/21 02:16:40;;;;;;;9.00;3.00;;;;;;;;;;5001582;28;20472;-85
2022/01/21 02:21:51;;;;;;;10.27;4.07;;;;;;;;;;5002896;28;20502;-83
2022/01/21 02:24:21;;;;;;;9.13;4.20;;;;;;;;;;5002061;28;20469;-81
2022/01/21 02:26:49;;;;;;;15.50;4.10;;;;;;;;;;5000783;28;20845;-85
2022/01/21 02:29:26;;;;;;;14.83;4.40;;;;;;;;;;5001179;28;20536;-83
2022/01/21 02:31:52;;;;;;;9.70;4.10;;;;;;;;;;5001602;28;20461;-87
2022/01/21 02:34:18;;;;;;;8.67;4.33;;;;;;;;;;5002822;28;20482;-85
2022/01/21 02:36:44;;;;;;;16.53;3.50;;;;;;;;;;5002538;28;20454;-84
2022/01/21 02:39:12;;;;;;;14.87;4.67;;;;;;;;;;5000854;28;20481;-83
2022/01/21 02:41:38;;;;;;;29.30;5.93;;;;;;;;;;5002695;28;20876;-87
2022/01/21 02:44:05;;;;;;;10.63;4.83;;;;;;;;;;5001847;28;20469;-85
2022/01/21 02:46:36;;;;;;;10.30;3.10;;;;;;;;;;5001942;28;20453;-84
2022/01/21 02:49:02;;;;;;;12.10;3.40;;;;;;;;;;4999972;28;20481;-87
2022/01/21 02:51:29;;;;;;;16.27;2.93;;;;;;;;;;5001961;28;20531;-86
2022/01/21 02:54:04;;;;;;;9.20;3.30;;;;;;;;;;5001992;28;20483;-86
2022/01/21 02:56:32;;;;;;;10.73;2.80;;;;;;;;;;5002161;28;20454;-88
2022/01/21 02:58:59;;;;;;;12.90;3.37;;;;;;;;;;4998142;28;20554;-84
2022/01/21 03:01:25;;;;;;;11.30;3.50;;;;;;;;;;5001191;28;20511;-84
2022/01/21 03:03:52;;;;;;;6.60;3.00;;;;;;;;;;5000038;28;20473;-86
2022/01/21 03:06:19;;;;;;;8.90;3.00;;;;;;;;;;5000474;28;20456;-85
2022/01/21 03:08:46;;;;;;;7.03;2.97;;;;;;;;;;5001385;28;20469;-85
2022/01/21 03:11:13;;;;;;;9.43;2.20;;;;;;;;;;4999325;28;20489;-83
2022/01/21 03:13:41;;;;;;;7.83;2.23;;;;;;;;;;5002732;28;20474;-85
2022/01/21 03:16:07;;;;;;;10.83;2.13;;;;;;;;;;5004376;28;20458;-84
2022/01/21 03:18:33;;;;;;;7.80;2.00;;;;;;;;;;5001103;28;20470;-83
2022/01/21 03:21:00;;;;;;;13.47;2.50;;;;;;;;;;5001846;28;20487;-85
2022/01/21 03:23:28;;;;;;;13.70;2.50;;;;;;;;;;5000775;28;20478;-86
2022/01/21 03:25:54;;;;;;;7.50;2.00;;;;;;;;;;5001497;28;20928;-85
2022/01/21 03:28:20;;;;;;;10.40;2.80;;;;;;;;;;4998567;28;20900;-85
2022/01/21 03:30:50;;;;;;;4.50;1.53;;;;;;;;;;5001339;28;20525;-85
2022/01/21 03:33:16;;;;;;;12.53;2.90;;;;;;;;;;5001569;28;20544;-84
2022/01/21 03:35:43;;;;;;;15.40;2.70;;;;;;;;;;5000837;28;20463;-87
2022/01/21 03:38:09;;;;;;;13.10;2.50;;;;;;;;;;4999948;28;20527;-83
2022/01/21 03:40:36;;;;;;;8.57;2.40;;;;;;;;;;4999143;28;20469;-86
2022/01/21 03:43:02;;;;;;;10.60;2.60;;;;;;;;;;4999264;28;20504;-88
2022/01/21 03:45:28;;;;;;;10.70;2.37;;;;;;;;;;4998894;28;21084;-85
2022/01/21 03:47:56;;;;;;;18.53;3.50;;;;;;;;;;4999244;28;20555;-85
2022/01/21 03:50:29;;;;;;;9.63;2.87;;;;;;;;;;5002494;28;20477;-85
2022/01/21 03:52:56;;;;;;;13.10;2.40;;;;;;;;;;5001173;28;20908;-83
2022/01/21 03:55:22;;;;;;;6.67;2.23;;;;;;;;;;5001852;28;20442;-87
2022/01/21 03:57:48;;;;;;;10.20;2.70;;;;;;;;;;5000531;28;20478;-85
2022/01/21 04:00:16;;;;;;;12.23;4.10;;;;;;;;;;4999541;28;20582;-86
2022/01/21 04:02:43;;;;;;;15.20;5.47;;;;;;;;;;4999854;28;20477;-84
2022/01/21 04:05:11;;;;;;;6.87;3.90;;;;;;;;;;5001565;28;21049;-85
2022/01/21 04:07:37;;;;;;;11.70;4.67;;;;;;;;;;4998651;28;20521;-86
2022/01/21 04:10:04;;;;;;;13.03;3.60;;;;;;;;;;4999426;28;20481;-86
2022/01/21 04:12:30;;;;;;;14.63;3.23;;;;;;;;;;4999416;28;20837;-84
2022/01/21 04:14:58;;;;;;;15.30;2.70;;;;;;;;;;4999968;28;20528;-85
2022/01/21 04:17:24;;;;;;;7.63;1.83;;;;;;;;;;5000562;28;20825;-84
2022/01/21 04:19:50;;;;;;;12.80;2.90;;;;;;;;;;4999804;28;20469;-82
2022/01/21 04:22:18;;;;;;;8.73;1.80;;;;;;;;;;5000791;28;20469;-84
2022/01/21 04:24:46;;;;;;;9.60;2.47;;;;;;;;;;5002907;28;20482;-83
2022/01/21 04:27:12;;;;;;;8.40;2.23;;;;;;;;;;4999829;28;20986;-84
2022/01/21 04:29:38;;;;;;;8.00;2.07;;;;;;;;;;5001594;28;20492;-85
2022/01/21 04:32:05;;;;;;;11.23;3.37;;;;;;;;;;5000099;28;20454;-85
2022/01/21 04:34:32;;;;;;;5.27;2.07;;;;;;;;;;4998716;28;20474;-85
2022/01/21 04:36:59;;;;;;;18.30;2.67;;;;;;;;;;4999897;28;20887;-86
2022/01/21 04:39:32;;;;;;;5.13;1.87;;;;;;;;;;5000600;28;21032;-86
2022/01/21 04:47:26;;;;;;;8.80;2.20;;;;;;;;;;4999550;28;20574;-84
2022/01/21 04:49:53;;;;;;;19.13;2.10;;;;;;;;;;5001004;28;20486;-85
2022/01/21 04:52:20;;;;;;;10.70;2.17;;;;;;;;;;5001231;28;20447;-84
2022/01/21 04:54:47;;;;;;;4.50;1.83;;;;;;;;;;4998704;28;20482;-82
2022/01/21 04:57:13;;;;;;;6.20;2.10;;;;;;;;;;5001760;28;20449;-85
2022/01/21 04:59:41;;;;;;;4.80;1.83;;;;;;;;;;4997429;28;20477;-85
2022/01/21 05:02:07;;;;;;;6.37;1.80;;;;;;;;;;5000920;28;20462;-85
2022/01/21 05:04:34;;;;;;;16.40;2.30;;;;;;;;;;5000093;28;20477;-85
2022/01/21 05:07:02;;;;;;;6.97;2.00;;;;;;;;;;5001040;28;20462;-85
2022/01/21 05:09:32;;;;;;;13.73;2.30;;;;;;;;;;5000231;28;20573;-83
2022/01/21 05:12:01;;;;;;;19.67;3.00;;;;;;;;;;5003780;28;20472;-83
2022/01/21 05:14:28;;;;;;;12.27;2.07;;;;;;;;;;5001671;28;21062;-86
2022/01/21 05:17:03;;;;;;;5.30;1.80;;;;;;;;;;5004689;28;20466;-85
2022/01/21 05:19:29;;;;;;;11.47;2.17;;;;;;;;;;5003231;28;21007;-85
2022/01/21 05:21:55;;;;;;;4.60;2.00;;;;;;;;;;5003795;28;21157;-85
2022/01/21 05:24:22;;;;;;;6.07;2.13;;;;;;;;;;5004335;28;21170;-87
2022/01/21 05:26:54;;;;;;;12.63;2.30;;;;;;;;;;5004602;28;20474;-84
2022/01/21 05:29:22;;;;;;;9.20;2.13;;;;;;;;;;5006049;28;20490;-84
2022/01/21 05:31:49;;;;;;;7.23;1.70;;;;;;;;;;5004947;28;20461;-84
2022/01/21 05:34:15;;;;;;;8.40;1.97;;;;;;;;;;5004343;28;20466;-87
2022/01/21 05:36:41;;;;;;;9.23;2.07;;;;;;;;;;5004855;28;20461;-85
2022/01/21 05:39:08;;;;;;;10.03;2.70;;;;;;;;;;5003460;28;21078;-86
2022/01/21 05:41:34;;;;;;;6.13;1.63;;;;;;;;;;4997029;28;20485;-85
2022/01/21 05:44:03;;;;;;;7.73;2.33;;;;;;;;;;4997188;28;20485;-84
2022/01/21 05:46:52;;;;;;;10.27;2.50;;;;;;;;;;5003330;28;20560;-85
2022/01/21 05:49:18;;;;;;;10.30;1.90;;;;;;;;;;5004428;28;20466;-86
2022/01/21 05:51:44;;;;;;;9.37;1.77;;;;;;;;;;5004227;28;21014;-85
2022/01/21 05:54:10;;;;;;;8.83;1.93;;;;;;;;;;5003951;28;20896;-84
2022/01/21 05:56:37;;;;;;;12.10;3.50;;;;;;;;;;5004572;28;20513;-86
2022/01/21 05:59:03;;;;;;;10.33;3.47;;;;;;;;;;5002687;28;20489;-84
2022/01/21 06:01:30;;;;;;;15.00;2.63;;;;;;;;;;5004559;28;20470;-84
2022/01/21 06:03:57;;;;;;;13.63;2.43;;;;;;;;;;5001045;28;21062;-86
2022/01/21 06:06:23;;;;;;;6.90;2.63;;;;;;;;;;5004628;28;20899;-85
2022/01/21 06:08:50;;;;;;;7.83;3.03;;;;;;;;;;5002254;28;20900;-86
2022/01/21 06:11:16;;;;;;;10.13;2.40;;;;;;;;;;5003257;28;21035;-84
2022/01/21 06:13:44;;;;;;;13.77;3.33;;;;;;;;;;5001975;28;20486;-84
2022/01/21 06:16:10;;;;;;;8.40;2.50;;;;;;;;;;5004210;28;20456;-84
2022/01/21 06:18:36;;;;;;;14.90;2.63;;;;;;;;;;5001593;28;20521;-84
2022/01/21 06:21:04;;;;;;;14.17;3.40;;;;;;;;;;5003590;28;20496;-85
2022/01/21 06:23:30;;;;;;;10.60;4.03;;;;;;;;;;5002243;28;20473;-84
2022/01/21 06:25:57;;;;;;;8.30;2.90;;;;;;;;;;5003949;28;20473;-83
2022/01/21 06:28:24;;;;;;;11.27;4.00;;;;;;;;;;5001216;28;20804;-84
2022/01/21 06:30:50;;;;;;;15.57;4.30;;;;;;;;;;5003203;28;20560;-83
2022/01/21 06:33:16;;;;;;;16.40;4.87;;;;;;;;;;5004013;28;20543;-84
2022/01/21 06:35:43;;;;;;;15.13;6.30;;;;;;;;;;5005351;28;20457;-81
2022/01/21 06:38:10;;;;;;;16.47;7.37;;;;;;;;;;5004323;28;20846;-82
2022/01/21 06:40:37;;;;;;;13.07;7.53;;;;;;;;;;5005266;28;20483;-84
2022/01/21 06:43:03;;;;;;;11.93;6.57;;;;;;;;;;5003483;28;20481;-83
2022/01/21 06:45:29;;;;;;;15.90;6.70;;;;;;;;;;5006096;28;20522;-84
2022/01/21 06:47:58;;;;;;;11.90;5.97;;;;;;;;;;5004108;28;20490;-83
2022/01/21 06:50:24;;;;;;;12.27;6.13;;;;;;;;;;5004057;28;20532;-83
2022/01/21 06:52:50;;;;;;;8.87;4.87;;;;;;;;;;5002725;28;20481;-84
2022/01/21 06:55:18;;;;;;;28.20;5.37;;;;;;;;;;5003712;28;20445;-83
2022/01/21 06:57:44;;;;;;;12.40;5.03;;;;;;;;;;5003470;28;20478;-83
2022/01/21 07:00:13;;;;;;;16.00;4.87;;;;;;;;;;5004127;28;20497;-84
2022/01/21 07:02:39;;;;;;;16.13;5.00;;;;;;;;;;5002630;28;20461;-81
2022/01/21 07:05:06;;;;;;;16.03;5.90;;;;;;;;;;5002999;28;20545;-83
2022/01/21 07:07:33;;;;;;;15.70;8.20;;;;;;;;;;5003380;28;20470;-84
2022/01/21 07:10:00;;;;;;;15.40;8.70;;;;;;;;;;5005050;28;20489;-84
2022/01/21 07:12:28;;;;;;;17.97;8.90;;;;;;;;;;5004014;28;20465;-84
2022/01/21 07:17:23;;;;;;;18.63;7.50;;;;;;;;;;5008415;28;20830;-88
2022/01/21 07:19:49;;;;;;;13.10;7.03;;;;;;;;;;5010417;28;20477;-88
2022/01/21 07:22:15;;;;;;;12.80;7.47;;;;;;;;;;5011790;28;20458;-87
2022/01/21 07:24:42;;;;;;;11.60;4.20;;;;;;;;;;5009805;28;20917;-86
2022/01/21 07:27:08;;;;;;;11.07;5.30;;;;;;;;;;5009679;28;20526;-88
2022/01/21 07:29:36;;;;;;;10.73;4.53;;;;;;;;;;4992134;28;20478;-87
2022/01/21 07:32:02;;;;;;;11.73;3.93;;;;;;;;;;4990807;28;20458;-88
2022/01/21 07:34:28;;;;;;;19.50;4.13;;;;;;;;;;4991364;28;20485;-88
2022/01/21 07:36:55;;;;;;;9.00;2.40;;;;;;;;;;4991825;28;20466;-87
2022/01/21 07:39:21;;;;;;;10.70;2.77;;;;;;;;;;4991710;28;20478;-87
2022/01/21 07:41:48;;;;;;;8.30;2.80;;;;;;;;;;4988454;28;20458;-87
2022/01/21 07:44:14;;;;;;;5.77;2.90;;;;;;;;;;4990216;28;20528;-87
2022/01/21 07:46:43;;;;;;;10.63;3.87;;;;;;;;;;4988500;28;20995;-87
2022/01/21 07:49:09;;;;;;;10.60;3.83;;;;;;;;;;5002143;28;20477;-88
2022/01/21 07:51:36;;;;;;;14.83;3.30;;;;;;;;;;5005743;28;20469;-87
2022/01/21 07:54:03;;;;;;;7.07;2.97;;;;;;;;;;4990255;28;20541;-88
2022/01/21 07:56:29;;;;;;;10.13;3.73;;;;;;;;;;4989627;28;20474;-87
2022/01/21 07:58:56;;;;;;;17.03;3.73;;;;;;;;;;5002357;28;21022;-87
2022/01/21 08:01:22;;;;;;;11.73;3.67;;;;;;;;;;5008627;28;20826;-87
2022/01/21 08:03:50;;;;;;;7.80;3.10;;;;;;;;;;5008936;28;20896;-87
2022/01/21 08:06:16;;;;;;;16.83;3.37;;;;;;;;;;5011411;28;20584;-87
2022/01/21 08:08:42;;;;;;;9.00;4.23;;;;;;;;;;5009484;28;20485;-87
2022/01/21 08:11:09;;;;;;;10.70;3.40;;;;;;;;;;5008447;28;20484;-87
2022/01/21 08:13:35;;;;;;;11.93;3.43;;;;;;;;;;5010139;28;20481;-87
2022/01/21 08:16:01;;;;;;;11.43;4.80;;;;;;;;;;5009930;28;20478;-87
2022/01/21 08:18:27;;;;;;;12.27;4.83;;;;;;;;;;5007758;28;20481;-87
2022/01/21 08:20:55;;;;;;;13.70;5.90;;;;;;;;;;5008130;28;20462;-87
2022/01/21 08:23:21;;;;;;;9.73;6.00;;;;;;;;;;5008668;28;20489;-87
2022/01/21 08:25:48;;;;;;;12.27;6.30;;;;;;;;;;5008814;28;20481;-87
2022/01/21 08:28:14;;;;;;;13.00;5.57;;;;;;;;;;5008727;28;20557;-87
2022/01/21 08:30:41;;;;;;;10.40;6.43;;;;;;;;;;5008066;28;20504;-87
2022/01/21 08:33:07;;;;;;;11.20;7.43;;;;;;;;;;5006079;28;21057;-87
2022/01/21 08:35:33;;;;;;;25.00;11.63;;;;;;;;;;5009629;28;20473;-87
2022/01/21 08:38:01;;;;;;;15.17;11.17;;;;;;;;;;5008690;28;20497;-87
2022/01/21 08:40:28;;;;;;;16.30;10.43;;;;;;;;;;5010075;28;21021;-88
2022/01/21 08:42:54;;;;;;;17.00;8.50;;;;;;;;;;5008591;28;20469;-87
2022/01/21 08:45:21;;;;;;;13.93;6.83;;;;;;;;;;5009623;28;20474;-88
2022/01/21 08:47:48;;;;;;;15.60;4.23;;;;;;;;;;5012717;28;20526;-87
2022/01/21 08:50:17;;;;;;;10.83;3.57;;;;;;;;;;5012191;28;20465;-87
2022/01/21 08:52:44;;;;;;;4.00;2.40;;;;;;;;;;5011306;28;20528;-87
2022/01/21 08:55:13;;;;;;;8.90;2.77;;;;;;;;;;5012923;28;20465;-87
2022/01/21 08:57:41;;;;;;;13.10;2.23;;;;;;;;;;5015666;28;20446;-87
2022/01/21 09:00:08;;;;;;;11.73;2.50;;;;;;;;;;5015459;28;20523;-87
2022/01/21 09:02:35;;;;;;;6.03;3.30;;;;;;;;;;5008538;28;20458;-87
2022/01/21 09:05:01;;;;;;;10.47;2.77;;;;;;;;;;5010105;28;20847;-88
2022/01/21 09:07:27;;;;;;;9.50;3.10;;;;;;;;;;5010890;28;20494;-87
2022/01/21 09:09:53;;;;;;;10.20;3.07;;;;;;;;;;5010331;28;20457;-87
2022/01/21 09:12:21;;;;;;;4.80;1.90;;;;;;;;;;5013694;28;20442;-87
2022/01/21 09:14:49;;;;;;;11.10;2.80;;;;;;;;;;5012444;28;20489;-87
2022/01/21 09:17:15;;;;;;;10.33;2.17;;;;;;;;;;5013710;28;20454;-87
2022/01/21 09:19:41;;;;;;;9.20;2.53;;;;;;;;;;5014251;28;20481;-88
2022/01/21 09:22:08;;;;;;;8.40;2.50;;;;;;;;;;5012906;28;20470;-87
2022/01/21 09:24:35;;;;;;;5.60;2.50;;;;;;;;;;5013533;28;20481;-87
2022/01/21 09:27:01;;;;;;;4.70;2.30;;;;;;;;;;5013068;28;20485;-87
2022/01/21 09:29:29;;;;;;;9.73;3.13;;;;;;;;;;5015745;28;21006;-87
2022/01/21 09:31:55;;;;;;;16.70;3.20;;;;;;;;;;5012982;28;20476;-88
2022/01/21 09:34:22;;;;;;;10.40;3.00;;;;;;;;;;5015487;28;20535;-87
2022/01/21 09:36:48;;;;;;;9.50;3.13;;;;;;;;;;5017658;28;20504;-87
2022/01/21 09:39:14;;;;;;;6.03;3.43;;;;;;;;;;5016457;28;20470;-87
2022/01/21 09:41:42;;;;;;;14.03;2.50;;;;;;;;;;5018231;28;20457;-87
2022/01/21 09:44:11;;;;;;;12.13;2.97;;;;;;;;;;5016074;28;20504;-87
2022/01/21 09:46:43;;;;;;;7.60;2.30;;;;;;;;;;5014907;28;20572;-87
2022/01/21 09:49:20;;;;;;;11.00;3.20;;;;;;;;;;5013825;28;20500;-88
2022/01/21 09:51:47;;;;;;;8.67;2.80;;;;;;;;;;5015270;28;20457;-87
2022/01/21 09:54:13;;;;;;;8.80;3.17;;;;;;;;;;5015929;28;20469;-87
2022/01/21 09:56:40;;;;;;;14.50;2.40;;;;;;;;;;5015399;28;20492;-87
2022/01/21 09:59:06;;;;;;;13.70;3.83;;;;;;;;;;5014704;28;20477;-87
2022/01/21 10:01:33;;;;;;;8.90;2.87;;;;;;;;;;5010891;28;20462;-88
2022/01/21 10:04:02;;;;;;;9.13;3.03;;;;;;;;;;5009420;28;20478;-88
2022/01/21 10:06:29;;;;;;;7.73;2.20;;;;;;;;;;5009229;28;20485;-88
2022/01/21 10:08:55;;;;;;;11.40;3.07;;;;;;;;;;5008582;28;20478;-88
2022/01/21 10:11:22;;;;;;;6.93;2.60;;;;;;;;;;5008663;28;20467;-87
2022/01/21 10:13:48;;;;;;;12.23;3.67;;;;;;;;;;5010624;28;20485;-87
2022/01/21 10:16:15;;;;;;;7.20;2.67;;;;;;;;;;5006851;28;20485;-88
2022/01/21 10:18:58;;;;;;;11.50;2.60;;;;;;;;;;5011191;28;21073;-88
2022/01/21 10:21:30;;;;;;;7.83;2.90;;;;;;;;;;5011354;28;21017;-88
2022/01/21 10:24:03;;;;;;;8.70;3.27;;;;;;;;;;5011835;28;20496;-87
2022/01/21 10:26:30;;;;;;;13.47;2.97;;;;;;;;;;5011990;28;21176;-87
2022/01/21 10:28:57;;;;;;;17.23;4.70;;;;;;;;;;5010927;28;20903;-88
2022/01/21 10:31:24;;;;;;;9.93;3.70;;;;;;;;;;5012787;28;20497;-87
2022/01/21 10:33:51;;;;;;;13.03;3.10;;;;;;;;;;5009972;28;20482;-87
2022/01/21 10:36:24;;;;;;;8.90;2.83;;;;;;;;;;5011980;28;20489;-87
2022/01/21 10:38:55;;;;;;;12.70;3.50;;;;;;;;;;5012375;28;20535;-88
2022/01/21 10:41:22;;;;;;;8.73;4.00;;;;;;;;;;5013417;28;20962;-88
2022/01/21 10:44:02;;;;;;;16.97;4.60;;;;;;;;;;5012895;28;20520;-87
2022/01/21 10:46:29;;;;;;;10.10;3.13;;;;;;;;;;5011516;28;21096;-87
2022/01/21 10:48:56;;;;;;;14.77;3.30;;;;;;;;;;4999346;28;20475;-88
2022/01/21 10:51:25;;;;;;;14.30;3.83;;;;;;;;;;4992981;28;20466;-88
2022/01/21 10:53:53;;;;;;;15.27;3.87;;;;;;;;;;4991299;28;20517;-87
2022/01/21 10:56:19;;;;;;;15.20;4.13;;;;;;;;;;4993202;28;20462;-88
2022/01/21 10:58:46;;;;;;;11.30;3.67;;;;;;;;;;4989953;28;21039;-87
2022/01/21 11:01:17;;;;;;;14.07;3.70;;;;;;;;;;4991669;28;20944;-88
2022/01/21 11:03:56;;;;;;;13.83;3.23;;;;;;;;;;4989837;28;20564;-88
2022/01/21 11:06:25;;;;;;;16.23;3.80;;;;;;;;;;4990686;28;20519;-88
2022/01/21 11:09:11;;;;;;;11.80;2.93;;;;;;;;;;4988006;28;20474;-88
2022/01/21 11:11:37;;;;;;;12.13;2.87;;;;;;;;;;4991897;28;20512;-87
2022/01/21 11:14:09;;;;;;;11.60;4.13;;;;;;;;;;4992130;28;20897;-88
2022/01/21 11:16:36;;;;;;;7.77;2.97;;;;;;;;;;4992331;28;20478;-88
2022/01/21 11:19:08;;;;;;;17.20;3.40;;;;;;;;;;4992142;28;20497;-87
2022/01/21 11:21:38;;;;;;;17.90;3.70;;;;;;;;;;4988008;28;20454;-87
2022/01/21 11:24:07;;;;;;;17.60;3.80;;;;;;;;;;4993061;28;20545;-87
2022/01/21 11:26:33;;;;;;;12.97;3.80;;;;;;;;;;4993527;28;20486;-89
2022/01/21 11:29:01;;;;;;;11.60;4.23;;;;;;;;;;4991548;28;20489;-87
2022/01/21 11:31:28;;;;;;;14.97;3.53;;;;;;;;;;4988322;28;20462;-87
2022/01/21 11:33:54;;;;;;;13.60;3.73;;;;;;;;;;4991329;28;20478;-87
2022/01/21 11:36:21;;;;;;;19.50;3.30;;;;;;;;;;4993912;28;20493;-84
2022/01/21 11:38:48;;;;;;;11.83;3.70;;;;;;;;;;4990644;28;20539;-86
2022/01/21 11:41:16;;;;;;;16.97;4.97;;;;;;;;;;4993364;28;21135;-87
2022/01/21 11:43:49;;;;;;;11.30;3.27;;;;;;;;;;4989876;28;20482;-85
2022/01/21 11:46:26;;;;;;;7.13;3.60;;;;;;;;;;4993248;28;21058;-87
2022/01/21 11:48:53;;;;;;;15.10;3.90;;;;;;;;;;4992619;28;20534;-87
2022/01/21 11:51:21;;;;;;;12.80;3.53;;;;;;;;;;4993671;28;20455;-87
2022/01/21 11:53:49;;;;;;;18.47;4.17;;;;;;;;;;4988945;28;20478;-87
2022/01/21 11:56:35;;;;;;;19.00;3.60;;;;;;;;;;4994652;28;20478;-87
2022/01/21 11:59:01;;;;;;;23.07;6.47;;;;;;;;;;4991988;28;20475;-87
2022/01/21 12:01:32;;;;;;;22.60;5.80;;;;;;;;;;4993827;28;20458;-87
2022/01/21 12:04:00;;;;;;;10.17;4.90;;;;;;;;;;4992819;28;20476;-87
2022/01/21 12:06:31;;;;;;;17.23;6.47;;;;;;;;;;4991503;28;20482;-87
2022/01/21 12:08:59;;;;;;;21.53;4.90;;;;;;;;;;4990817;28;21378;-87
2022/01/21 12:11:29;;;;;;;15.73;3.60;;;;;;;;;;4993190;28;20516;-87
2022/01/21 12:13:57;;;;;;;13.27;3.87;;;;;;;;;;4990475;28;20491;-87
2022/01/21 12:16:47;;;;;;;16.20;3.83;;;;;;;;;;4994726;28;20517;-87
2022/01/21 12:19:22;;;;;;;19.23;3.97;;;;;;;;;;4990655;28;20486;-87
2022/01/21 12:21:50;;;;;;;12.40;2.70;;;;;;;;;;4990729;28;20473;-87
2022/01/21 12:24:17;;;;;;;16.53;3.70;;;;;;;;;;4992150;28;20478;-87
2022/01/21 12:26:55;;;;;;;9.47;3.00;;;;;;;;;;4992072;28;20498;-86
2022/01/21 12:29:25;;;;;;;12.50;3.77;;;;;;;;;;4992835;28;20478;-87
2022/01/21 12:31:55;;;;;;;14.23;3.90;;;;;;;;;;4991969;28;20536;-85
2022/01/21 12:34:22;;;;;;;23.47;4.70;;;;;;;;;;4988776;28;20544;-86
2022/01/21 12:36:49;;;;;;;13.23;4.37;;;;;;;;;;4990148;28;20482;-86
2022/01/21 12:39:30;;;;;;;15.90;3.70;;;;;;;;;;4993140;28;20542;-85
2022/01/21 12:41:57;;;;;;;13.27;4.63;;;;;;;;;;4991144;28;20454;-86
2022/01/21 12:44:31;;;;;;;13.50;3.00;;;;;;;;;;4992962;28;20899;-85
2022/01/21 12:46:58;;;;;;;11.40;4.37;;;;;;;;;;4991897;28;20544;-85
2022/01/21 12:49:36;;;;;;;28.13;6.43;;;;;;;;;;4991785;28;20475;-84
2022/01/21 12:52:26;;;;;;;10.10;3.13;;;;;;;;;;4990737;28;20544;-85
2022/01/21 12:57:36;;;;;;;15.87;4.10;;;;;;;;;;5011522;28;20453;-85
2022/01/21 13:00:08;;;;;;;18.20;4.20;;;;;;;;;;5013371;28;20468;-85
2022/01/21 13:02:36;;;;;;;15.73;3.50;;;;;;;;;;5011069;28;20473;-85
2022/01/21 13:05:09;;;;;;;13.20;4.70;;;;;;;;;;5011196;28;20911;-85
2022/01/21 13:07:42;;;;;;;8.97;2.97;;;;;;;;;;5011386;28;20478;-85
2022/01/21 13:10:16;;;;;;;13.30;3.53;;;;;;;;;;5013506;28;20842;-85
2022/01/21 13:12:57;;;;;;;13.10;3.53;;;;;;;;;;5010253;28;20474;-85
2022/01/21 13:15:25;;;;;;;12.07;3.97;;;;;;;;;;5038668;23;20508;-83
2022/01/21 13:17:58;;;;;;;12.90;2.97;;;;;;;;;;5039342;28;20464;-83
2022/01/21 13:20:28;;;;;;;20.20;5.37;;;;;;;;;;5038454;28;20452;-83
2022/01/21 13:22:54;;;;;;;5.87;2.90;;;;;;;;;;5040242;28;20461;-84
2022/01/21 13:25:22;;;;;;;13.40;3.70;;;;;;;;;;5041109;28;20478;-83
2022/01/21 13:27:50;;;;;;;19.37;3.90;;;;;;;;;;5037485;28;20863;-84
2022/01/21 13:30:17;;;;;;;16.53;4.50;;;;;;;;;;5038195;28;20523;-83
2022/01/21 13:32:46;;;;;;;15.97;3.67;;;;;;;;;;5040850;28;20467;-83
2022/01/21 13:35:14;;;;;;;10.40;3.60;;;;;;;;;;5041755;28;20478;-82
2022/01/21 13:37:42;;;;;;;17.53;4.10;;;;;;;;;;5043346;28;20934;-83
2022/01/21 13:40:09;;;;;;;17.63;4.50;;;;;;;;;;5044971;28;20475;-84
2022/01/21 13:42:36;;;;;;;13.40;4.10;;;;;;;;;;5044786;28;20447;-83
2022/01/21 13:45:08;;;;;;;12.50;3.73;;;;;;;;;;5042861;28;20464;-83
2022/01/21 13:47:36;;;;;;;11.17;4.13;;;;;;;;;;5042649;28;20484;-82
2022/01/21 13:50:07;;;;;;;12.63;3.43;;;;;;;;;;5044986;28;20475;-84
2022/01/21 13:52:35;;;;;;;10.23;3.40;;;;;;;;;;5045009;28;20456;-83
2022/01/21 13:55:02;;;;;;;18.23;5.00;;;;;;;;;;5043664;28;20804;-82
2022/01/21 13:57:29;;;;;;;16.93;4.30;;;;;;;;;;5045925;28;20451;-83
2022/01/21 13:59:55;;;;;;;17.33;4.67;;;;;;;;;;5044619;28;20455;-82
2022/01/21 14:02:22;;;;;;;13.90;4.40;;;;;;;;;;5044231;28;20521;-84
2022/01/21 14:04:56;;;;;;;11.17;3.30;;;;;;;;;;5043362;28;20826;-84
2022/01/21 14:07:25;;;;;;;13.40;3.70;;;;;;;;;;5044819;28;20519;-81
2022/01/21 14:09:51;;;;;;;14.10;4.40;;;;;;;;;;5044277;28;20514;-84
2022/01/21 14:12:17;;;;;;;19.20;6.07;;;;;;;;;;5046182;28;20444;-83
2022/01/21 14:14:44;;;;;;;10.63;4.70;;;;;;;;;;5043573;28;20507;-83
2022/01/21 14:17:10;;;;;;;19.23;6.00;;;;;;;;;;5043061;28;20932;-86
2022/01/21 14:19:39;;;;;;;9.43;4.63;;;;;;;;;;5038933;28;20492;-83
2022/01/21 14:22:07;;;;;;;12.50;4.80;;;;;;;;;;5041417;28;20457;-81
2022/01/21 14:24:40;;;;;;;12.23;4.60;;;;;;;;;;5040639;28;20548;-81
2022/01/21 14:27:16;;;;;;;11.43;3.63;;;;;;;;;;5042159;28;20480;-85
2022/01/21 14:29:42;;;;;;;15.03;4.63;;;;;;;;;;5041187;28;20541;-81
2022/01/21 14:32:15;;;;;;;11.50;3.97;;;;;;;;;;5043043;28;20469;-83
2022/01/21 14:34:43;;;;;;;17.90;6.80;;;;;;;;;;5044908;28;20483;-83
2022/01/21 14:37:12;;;;;;;15.23;5.63;;;;;;;;;;5045571;28;20491;-83
2022/01/21 14:39:40;;;;;;;17.83;4.33;;;;;;;;;;5046845;28;20476;-84
2022/01/21 14:42:08;;;;;;;18.23;4.40;;;;;;;;;;5047243;28;20444;-84
2022/01/21 14:44:40;;;;;;;14.97;4.50;;;;;;;;;;5047854;28;20460;-82
2022/01/21 14:47:07;;;;;;;22.20;5.30;;;;;;;;;;5047879;28;20468;-82
2022/01/21 14:49:34;;;;;;;14.77;5.40;;;;;;;;;;5044803;28;20496;-83
2022/01/21 14:52:33;;;;;;;9.63;4.57;;;;;;;;;;5042919;28;20456;-83
2022/01/21 14:54:49;;;;;;;13.30;5.43;;;;;;;;;;5041462;28;20527;-86
2022/01/21 14:57:16;;;;;;;12.60;4.87;;;;;;;;;;5047333;28;20469;-84
2022/01/21 14:59:52;;;;;;;22.70;5.67;;;;;;;;;;5046696;28;20467;-84
2022/01/21 15:02:27;;;;;;;13.03;4.43;;;;;;;;;;5044706;28;20471;-84
2022/01/21 15:04:54;;;;;;;6.83;3.80;;;;;;;;;;5045507;28;20527;-84
2022/01/21 15:07:25;;;;;;;10.87;3.50;;;;;;;;;;5041809;28;20966;-82
2022/01/21 15:09:54;;;;;;;11.13;4.37;;;;;;;;;;5043386;28;20499;-84
2022/01/21 15:15:07;;;;;;;11.37;3.57;;;;;;;;;;5040538;28;21172;-82
2022/01/21 15:17:34;;;;;;;8.83;2.40;;;;;;;;;;5045374;28;20949;-84